EDT,Max TemperatureF,Mean TemperatureF,Min TemperatureF,Max Dew PointF,MeanDew PointF,Min DewpointF,Max Humidity, Mean Humidity, Min Humidity, Max Sea Level PressureIn, Mean Sea Level PressureIn, Min Sea Level PressureIn, Max VisibilityMiles, Mean VisibilityMiles, Min VisibilityMiles, Max Wind SpeedMPH, Mean Wind SpeedMPH, Max Gust SpeedMPH,PrecipitationIn, CloudCover, Events, WindDirDegrees
2013-3-1,34,32,29,30,27,19,92,78,63,30.09,30.01,29.94,10,6,1,14,9,17,0.02,8,Snow,20
2013-3-2,32,30,27,20,19,16,75,67,58,30.11,30.08,30.05,10,8,2,18,11,21,T,8,Snow,359
2013-3-3,32,28,24,22,20,16,81,68,54,30.11,30.07,30.04,10,6,1,15,7,18,T,7,Snow,315
2013-3-4,39,29,19,29,20,14,84,66,48,30.16,30.09,30.01,10,10,6,12,4,20,T,3,,114
2013-3-5,36,33,29,31,29,25,92,84,75,30.01,29.75,29.63,10,4,0,22,13,25,0.29,8,Fog-Rain-Snow,64
2013-3-6,34,31,28,28,26,23,92,81,69,30.26,30.04,29.71,10,6,1,24,12,28,0.01,8,Snow,329
2013-3-7,37,34,31,28,27,25,92,76,59,30.40,30.35,30.26,10,7,3,12,7,14,T,8,,308
2013-3-8,38,30,21,24,22,19,92,70,48,30.50,30.44,30.40,10,9,3,9,4,12,0.00,0,,97
2013-3-9,52,40,27,34,28,23,78,63,48,30.38,30.21,29.97,10,9,2,17,9,21,0.00,2,,143
2013-3-10,66,59,51,40,35,32,54,43,32,29.96,29.86,29.73,10,10,10,24,14,31,0.03,2,Rain,182
2013-3-11,61,48,35,50,41,28,89,66,42,29.83,29.68,29.58,10,8,2,26,14,36,0.20,8,Rain-Snow,233
2013-3-12,42,37,32,31,28,24,89,72,55,30.02,29.95,29.84,10,8,0,18,13,31,0.02,7,Fog-Snow,267
2013-3-13,33,30,26,28,21,17,81,70,58,30.32,30.11,29.99,10,6,1,25,13,31,T,7,Snow,290
2013-3-14,43,33,22,25,19,16,81,60,38,30.35,30.27,30.16,10,10,10,15,7,20,0.00,1,,263
2013-3-15,50,41,32,39,32,28,85,73,60,30.14,29.98,29.81,10,8,5,10,7,,0.02,3,Rain,225
2013-3-16,46,40,34,40,36,28,93,84,75,30.06,29.79,29.62,10,4,0,18,9,22,0.00,6,Fog,12
2013-3-17,38,34,30,27,24,21,78,69,59,30.18,30.10,30.02,10,10,10,20,13,26,T,6,,66
2013-3-18,44,38,32,41,32,25,89,84,78,30.00,29.76,29.58,10,4,1,22,13,29,0.37,8,Rain-Snow,140
2013-3-19,39,33,26,27,19,14,75,60,44,30.09,29.94,29.81,10,10,10,35,19,44,T,4,,274
2013-3-20,32,27,22,18,14,9,68,57,46,30.08,30.03,30.00,10,10,3,24,14,33,T,5,Snow,282
2013-3-21,33,25,17,16,13,10,74,59,43,30.03,30.00,29.94,10,9,4,17,10,22,T,5,Snow,292
2013-3-22,43,32,20,21,17,14,84,59,34,30.06,30.04,30.00,10,10,10,14,4,,0.00,0,,273
2013-3-23,47,38,28,25,22,20,75,56,37,30.09,30.03,29.94,10,10,9,15,4,20,0.00,3,,33
2013-3-24,35,32,29,29,26,23,92,78,64,29.95,29.63,29.46,10,3,0,28,15,36,0.18,7,Fog-Snow,64
2013-3-25,35,32,29,30,28,26,92,84,75,29.97,29.68,29.48,10,2,0,21,13,24,0.05,8,Fog-Snow,335
2013-3-26,38,35,31,29,28,26,85,75,64,30.23,30.10,29.95,10,8,0,20,11,23,T,8,Fog-Snow,302
2013-3-27,41,34,27,26,24,22,81,68,54,30.32,30.28,30.23,10,10,8,17,9,21,0.00,2,,278
2013-3-28,46,37,28,29,25,22,78,62,45,30.37,30.33,30.30,10,10,7,13,5,16,0.00,0,,278
2013-3-29,54,42,30,35,29,24,85,66,46,30.32,30.28,30.22,10,9,5,13,3,17,0.00,1,,305
2013-3-30,57,44,30,34,29,25,85,60,35,30.24,30.12,29.92,10,9,5,14,5,17,0.00,0,,194
2013-3-31,60,52,43,43,40,34,86,65,44,29.90,29.80,29.73,10,8,3,29,11,35,0.04,5,Rain,254